createdAt,value
2019-04-11T00:01:40.935Z,40.10
2019-04-11T00:04:40.637Z,42.77
2019-04-11T00:07:46.737Z,46.10
2019-04-11T00:10:51.834Z,42.80
2019-04-11T00:13:57.818Z,41.73
2019-04-11T00:17:03.721Z,41.57
2019-04-11T00:20:09.681Z,43.37
2019-04-11T00:23:14.700Z,44.20
2019-04-11T00:26:20.162Z,40.43
2019-04-11T00:29:26.086Z,39.17
2019-04-11T00:32:31.644Z,42.70
2019-04-11T00:35:36.825Z,41.20
2019-04-11T00:38:42.349Z,38.37
2019-04-11T00:41:48.262Z,36.93
2019-04-11T00:44:53.389Z,37.90
2019-04-11T00:47:59.639Z,33.27
2019-04-11T00:51:04.915Z,32.63
2019-04-11T00:54:10.789Z,33.10
2019-04-11T00:57:16.866Z,32.30
2019-04-11T01:00:22.647Z,34.13
2019-04-11T01:03:28.402Z,33.23
2019-04-11T01:06:34.329Z,32.73
2019-04-11T01:09:40.238Z,30.50
2019-04-11T01:12:45.265Z,31.33
2019-04-11T01:15:56.563Z,33.23
2019-04-11T01:19:02.612Z,34.13
2019-04-11T01:22:07.752Z,36.63
2019-04-11T01:25:13.334Z,30.67
2019-04-11T01:28:18.714Z,31.00
2019-04-11T01:31:25.879Z,31.07
2019-04-11T01:34:31.262Z,29.90
2019-04-11T01:37:37.036Z,30.47
2019-04-11T01:40:42.272Z,32.33
2019-04-11T01:43:56.267Z,35.67
2019-04-11T01:46:54.458Z,30.30
2019-04-11T01:50:00.605Z,32.43
2019-04-11T01:53:06.728Z,33.53
2019-04-11T01:56:12.767Z,30.90
2019-04-11T01:59:17.817Z,32.00
2019-04-11T02:02:32.686Z,34.27
2019-04-11T02:05:37.565Z,35.27
2019-04-11T02:08:43.764Z,30.57
2019-04-11T02:11:49.866Z,35.73
2019-04-11T02:14:56.014Z,34.53
2019-04-11T02:18:01.321Z,32.97
2019-04-11T02:21:06.524Z,33.07
2019-04-11T02:24:28.480Z,33.97
2019-04-11T02:27:34.831Z,31.40
2019-04-11T02:30:44.164Z,35.87
2019-04-11T02:33:51.057Z,32.30
2019-04-11T02:36:58.024Z,33.53
2019-04-11T02:40:03.392Z,32.87
2019-04-11T02:43:11.742Z,35.77
2019-04-11T02:46:23.432Z,33.07
2019-04-11T02:49:25.326Z,32.93
2019-04-11T02:52:31.206Z,35.43
2019-04-11T02:55:37.800Z,38.70
2019-04-11T02:58:44.157Z,36.47
2019-04-11T03:01:50.880Z,33.17
2019-04-11T03:04:57.174Z,35.13
2019-04-11T03:08:06.983Z,39.53
2019-04-11T03:11:10.594Z,36.40
2019-04-11T03:14:18.466Z,35.67
2019-04-11T03:17:28.791Z,36.60
2019-04-11T03:20:38.382Z,36.00
2019-04-11T03:23:37.399Z,37.90
2019-04-11T03:26:43.485Z,35.60
2019-04-11T03:29:51.616Z,36.43
2019-04-11T03:37:00.761Z,34.67
2019-04-11T03:39:34.343Z,37.03
2019-04-11T03:42:35.309Z,37.03
2019-04-11T03:45:48.321Z,34.37
2019-04-11T03:48:45.061Z,35.63
2019-04-11T03:51:41.413Z,37.53
2019-04-11T03:54:47.531Z,36.03
2019-04-11T03:57:54.236Z,35.53
2019-04-11T04:01:03.404Z,39.70
2019-04-11T04:04:06.767Z,41.10
2019-04-11T04:07:13.141Z,42.83
2019-04-11T04:10:20.418Z,35.80
2019-04-11T04:13:28.272Z,37.80
2019-04-11T04:16:54.407Z,41.70
2019-04-11T04:20:22.205Z,42.50
2019-04-11T04:23:31.450Z,42.93
2019-04-11T04:26:39.131Z,38.50
2019-04-11T04:29:48.646Z,39.57
2019-04-11T04:32:52.240Z,44.30
2019-04-11T04:35:58.058Z,37.80
2019-04-11T04:39:05.621Z,37.70
2019-04-11T04:42:19.465Z,40.23
2019-04-11T04:45:17.706Z,39.97
2019-04-11T04:48:26.764Z,41.80
2019-04-11T04:51:31.241Z,43.27
2019-04-11T04:54:38.459Z,41.73
2019-04-11T04:57:44.967Z,42.47
2019-04-11T05:00:53.264Z,42.60
2019-04-11T05:03:58.173Z,40.97
2019-04-11T05:07:03.455Z,44.97
2019-04-11T05:10:11.401Z,39.93
2019-04-11T05:13:17.222Z,37.83
2019-04-11T05:16:22.180Z,41.83
2019-04-11T05:19:28.498Z,40.40
2019-04-11T05:22:33.701Z,38.47
2019-04-11T05:25:39.075Z,40.70
2019-04-11T05:28:44.079Z,38.27
2019-04-11T05:31:49.210Z,38.13
2019-04-11T05:34:54.268Z,40.33
2019-04-11T05:37:59.895Z,35.50
2019-04-11T05:41:09.589Z,38.00
2019-04-11T05:44:12.464Z,39.27
2019-04-11T05:47:19.714Z,38.50
2019-04-11T05:50:29.592Z,43.47
2019-04-11T05:53:36.462Z,41.63
2019-04-11T05:56:41.620Z,36.60
2019-04-11T05:59:51.151Z,42.97
2019-04-11T06:02:57.670Z,36.53
2019-04-11T06:06:20.491Z,39.17
2019-04-11T06:09:32.945Z,42.60
2019-04-11T06:12:50.649Z,44.43
2019-04-11T06:15:59.736Z,39.27
2019-04-11T06:19:22.884Z,38.10
2019-04-11T06:22:28.028Z,46.00
2019-04-11T06:25:46.741Z,40.60
2019-04-11T06:28:54.298Z,39.17
2019-04-11T06:32:26.096Z,38.37
2019-04-11T06:35:56.732Z,36.33
2019-04-11T06:39:23.096Z,41.20
2019-04-11T06:42:56.270Z,40.10
2019-04-11T06:46:19.012Z,38.43
2019-04-11T06:49:42.510Z,38.17
2019-04-11T06:52:48.722Z,41.50
2019-04-11T06:56:25.372Z,36.50
2019-04-11T06:59:36.867Z,41.27
2019-04-11T07:02:55.115Z,40.23
2019-04-11T07:06:02.916Z,37.30
2019-04-11T07:09:33.444Z,36.87
2019-04-11T07:13:06.314Z,36.90
2019-04-11T07:16:11.333Z,38.27
2019-04-11T07:19:45.846Z,37.00
2019-04-11T07:23:08.462Z,42.80
2019-04-11T07:26:33.080Z,34.70
2019-04-11T07:29:57.059Z,36.03
2019-04-11T07:33:20.186Z,35.07
2019-04-11T07:36:44.007Z,32.73
2019-04-11T07:40:26.841Z,35.57
2019-04-11T07:43:35.565Z,33.10
2019-04-11T07:47:14.595Z,31.93
2019-04-11T07:50:10.117Z,37.30
2019-04-11T07:53:16.000Z,32.37
2019-04-11T07:56:49.160Z,35.53
2019-04-11T08:00:00.141Z,33.57
2019-04-11T08:03:23.393Z,30.80
2019-04-11T08:07:02.648Z,36.30
2019-04-11T08:10:12.607Z,32.50
2019-04-11T08:13:22.692Z,30.90
2019-04-11T08:16:45.234Z,29.23
2019-04-11T08:20:08.050Z,30.60
2019-04-11T08:23:13.792Z,35.73
2019-04-11T08:26:36.663Z,31.40
2019-04-11T08:29:42.171Z,29.90
2019-04-11T08:32:55.337Z,29.50
2019-04-11T08:36:38.147Z,28.77
2019-04-11T08:39:47.145Z,31.67
2019-04-11T08:43:17.193Z,32.40
2019-04-11T08:46:26.781Z,27.03
2019-04-11T08:49:35.186Z,29.00
2019-04-11T08:52:57.637Z,30.50
2019-04-11T08:56:05.211Z,28.53
2019-04-11T08:59:44.243Z,34.00
2019-04-11T09:03:09.157Z,28.83
2019-04-11T09:06:17.204Z,30.27
2019-04-11T09:09:53.686Z,29.50
2019-04-11T09:13:06.976Z,28.03
2019-04-11T09:16:29.812Z,29.57
2019-04-11T09:20:00.166Z,31.40
2019-04-11T09:23:06.959Z,32.70
2019-04-11T09:26:20.215Z,34.20
2019-04-11T09:29:28.367Z,30.40
2019-04-11T09:33:01.697Z,32.50
2019-04-11T09:36:26.071Z,32.50
2019-04-11T09:39:49.057Z,32.37
2019-04-11T09:43:12.779Z,27.60
2019-04-11T09:46:28.250Z,28.67
2019-04-11T09:49:42.747Z,30.10
2019-04-11T09:52:49.473Z,33.20
2019-04-11T09:56:16.899Z,31.17
2019-04-11T09:59:27.338Z,32.50
2019-04-11T10:02:52.589Z,32.20
2019-04-11T10:06:12.738Z,34.27
2019-04-11T10:09:20.084Z,30.13
2019-04-11T10:12:42.647Z,27.37
2019-04-11T10:16:12.530Z,28.70
2019-04-11T10:19:22.251Z,31.50
2019-04-11T10:22:49.257Z,27.83
2019-04-11T10:25:57.789Z,27.13
2019-04-11T10:29:17.114Z,27.50
2019-04-11T10:32:25.363Z,31.60
2019-04-11T10:35:55.157Z,29.37
2019-04-11T10:39:15.194Z,25.77
2019-04-11T10:42:20.579Z,33.03
2019-04-11T10:45:51.059Z,26.50
2019-04-11T10:49:18.104Z,25.50
2019-04-11T10:52:28.811Z,26.20
2019-04-11T10:56:08.498Z,25.77
2019-04-11T10:59:15.395Z,25.00
2019-04-11T11:02:38.350Z,22.20
2019-04-11T11:05:47.164Z,24.33
2019-04-11T11:09:12.203Z,20.83
2019-04-11T11:12:35.247Z,20.37
2019-04-11T11:15:49.920Z,19.20
2019-04-11T11:19:45.679Z,23.80
2019-04-11T11:23:08.231Z,19.20
2019-04-11T11:26:21.436Z,22.50
2019-04-11T11:29:45.793Z,19.30
2019-04-11T11:32:51.752Z,21.57
2019-04-11T11:36:25.727Z,27.27
2019-04-11T11:39:46.964Z,20.20
2019-04-11T11:43:12.001Z,21.00
2019-04-11T11:46:38.908Z,19.00
2019-04-11T11:49:51.894Z,18.43
2019-04-11T11:53:25.851Z,19.07
2019-04-11T11:56:31.743Z,17.27
2019-04-11T11:59:56.525Z,17.93
2019-04-11T12:03:23.409Z,18.37
2019-04-11T12:06:29.192Z,19.20
2019-04-11T12:10:00.603Z,18.70
2019-04-11T12:13:17.170Z,17.10
2019-04-11T12:16:39.920Z,16.90
2019-04-11T12:20:11.310Z,19.90
2019-04-11T12:23:29.744Z,20.00
2019-04-11T12:26:39.929Z,18.77
2019-04-11T12:30:07.064Z,22.43
2019-04-11T12:33:29.715Z,18.40
2019-04-11T12:36:41.967Z,19.60
2019-04-11T12:40:00.523Z,20.90
2019-04-11T12:43:06.466Z,19.40
2019-04-11T12:46:48.563Z,17.57
2019-04-11T12:50:18.245Z,18.67
2019-04-11T12:53:26.123Z,16.80
2019-04-11T12:56:48.876Z,17.40
2019-04-11T13:00:02.077Z,18.37
2019-04-11T13:03:29.061Z,17.02
2019-04-11T13:07:00.082Z,15.43
2019-04-11T13:10:17.516Z,14.60
2019-04-11T13:13:33.692Z,15.20
2019-04-11T13:16:39.616Z,17.40
2019-04-11T13:20:04.919Z,14.27
2019-04-11T13:23:34.238Z,14.07
2019-04-11T13:26:57.271Z,13.43
2019-04-11T13:30:27.285Z,16.80
2019-04-11T13:33:32.348Z,14.30
2019-04-11T13:37:05.719Z,16.03
2019-04-11T13:40:32.797Z,13.63
2019-04-11T13:43:46.935Z,12.30
2019-04-11T13:47:10.860Z,13.30
2019-04-11T13:50:17.136Z,13.57
2019-04-11T13:53:39.508Z,12.00
2019-04-11T13:56:59.070Z,11.97
2019-04-11T14:00:22.107Z,9.57
2019-04-11T14:03:49.807Z,11.07
2019-04-11T14:06:54.966Z,9.93
2019-04-11T14:10:01.576Z,10.50
2019-04-11T14:13:08.014Z,9.90
2019-04-11T14:16:18.635Z,10.47
2019-04-11T14:19:35.832Z,10.83
2019-04-11T14:23:05.949Z,9.40
2019-04-11T14:26:29.828Z,9.53
2019-04-11T14:29:49.103Z,8.10
2019-04-11T14:32:54.513Z,8.77
2019-04-11T14:36:33.083Z,8.97
2019-04-11T14:39:36.677Z,9.37
2019-04-11T14:43:03.397Z,8.20
2019-04-11T14:46:27.231Z,9.83
2019-04-11T14:49:32.469Z,8.23
2019-04-11T14:52:57.970Z,8.70
2019-04-11T14:56:06.186Z,8.53
2019-04-11T14:59:30.243Z,8.93
2019-04-11T15:02:52.984Z,8.77
2019-04-11T15:06:17.203Z,9.40
2019-04-11T15:09:59.594Z,10.60
2019-04-11T15:13:05.016Z,9.70
2019-04-11T15:16:43.904Z,10.07
2019-04-11T15:19:53.686Z,10.13
2019-04-11T15:23:07.004Z,9.47
2019-04-11T15:26:28.738Z,9.07
2019-04-11T15:29:36.317Z,10.13
2019-04-11T15:33:00.203Z,11.80
2019-04-11T15:36:05.288Z,9.60
2019-04-11T15:39:43.931Z,10.37
2019-04-11T15:43:07.196Z,10.93
2019-04-11T15:46:31.833Z,11.20
2019-04-11T15:50:11.157Z,10.43
2019-04-11T15:53:22.799Z,9.97
2019-04-11T15:56:53.269Z,8.87
2019-04-11T16:00:22.833Z,11.53
2019-04-11T16:03:27.778Z,9.87
2019-04-11T16:06:41.690Z,10.43
2019-04-11T16:09:47.090Z,10.30
2019-04-11T16:13:01.209Z,10.10
2019-04-11T16:16:11.396Z,10.43
2019-04-11T16:19:30.846Z,10.60
2019-04-11T16:23:10.084Z,10.00
2019-04-11T16:26:19.643Z,10.13
2019-04-11T16:29:38.735Z,10.80
2019-04-11T16:32:46.044Z,12.77
2019-04-11T16:36:10.231Z,19.13
2019-04-11T16:39:49.996Z,9.27
2019-04-11T16:43:03.819Z,10.27
2019-04-11T16:46:26.369Z,9.10
2019-04-11T16:49:31.470Z,9.27
2019-04-11T16:52:38.591Z,10.43
2019-04-11T16:55:43.618Z,9.70
2019-04-11T16:58:50.189Z,9.90
2019-04-11T17:01:55.553Z,9.63
2019-04-11T17:05:00.454Z,9.03
2019-04-11T17:08:31.914Z,8.73
2019-04-11T17:11:36.802Z,10.20
2019-04-11T17:14:41.930Z,12.27
2019-04-11T17:17:46.949Z,10.03
2019-04-11T17:20:51.955Z,9.60
2019-04-11T17:23:57.094Z,9.70
2019-04-11T17:27:02.208Z,11.50
2019-04-11T17:30:08.322Z,9.93
2019-04-11T17:33:13.371Z,9.97
2019-04-11T17:36:18.471Z,10.53
2019-04-11T17:39:23.562Z,10.93
2019-04-11T17:42:28.534Z,10.37
2019-04-11T17:45:33.583Z,10.13
2019-04-11T17:48:39.130Z,10.30
2019-04-11T17:51:55.015Z,11.43
2019-04-11T17:54:51.925Z,11.00
2019-04-11T17:57:57.871Z,11.47
2019-04-11T18:01:05.456Z,13.03
2019-04-11T18:04:13.258Z,14.07
2019-04-11T18:07:17.776Z,11.20
2019-04-11T18:10:25.587Z,10.23
2019-04-11T18:13:31.508Z,9.47
2019-04-11T18:16:36.639Z,10.73
2019-04-11T18:19:41.684Z,10.23
2019-04-11T18:22:50.108Z,11.63
2019-04-11T18:25:53.362Z,9.30
2019-04-11T18:28:58.442Z,13.10
2019-04-11T18:32:03.453Z,11.67
2019-04-11T18:35:08.612Z,11.30
2019-04-11T18:38:13.766Z,9.90
2019-04-11T18:41:18.926Z,11.43
2019-04-11T18:44:23.950Z,13.27
2019-04-11T18:47:29.034Z,13.03
2019-04-11T18:50:33.949Z,10.30
2019-04-11T18:53:38.814Z,12.37
2019-04-11T18:56:43.838Z,12.57
2019-04-11T18:59:48.901Z,12.93
2019-04-11T19:02:54.221Z,13.13
2019-04-11T19:05:59.362Z,14.53
2019-04-11T19:09:06.313Z,13.57
2019-04-11T19:12:15.471Z,15.03
2019-04-11T19:15:18.477Z,14.47
2019-04-11T19:18:23.674Z,15.80
2019-04-11T19:21:28.702Z,16.10
2019-04-11T19:24:35.619Z,16.13
2019-04-11T19:27:40.615Z,16.83
2019-04-11T19:30:46.240Z,17.87
2019-04-11T19:33:51.440Z,14.27
2019-04-11T19:36:56.353Z,14.57
2019-04-11T19:40:03.120Z,14.97
2019-04-11T19:43:08.081Z,18.23
2019-04-11T19:46:13.335Z,14.50
2019-04-11T19:49:18.681Z,13.07
2019-04-11T19:52:23.794Z,13.90
2019-04-11T19:55:46.567Z,12.77
2019-04-11T19:58:51.654Z,13.27
2019-04-11T20:01:56.923Z,12.40
2019-04-11T20:05:01.936Z,13.33
2019-04-11T20:08:07.030Z,12.40
2019-04-11T20:11:11.993Z,13.20
2019-04-11T20:14:17.163Z,13.40
2019-04-11T20:17:22.281Z,12.50
2019-04-11T20:20:27.303Z,12.67
2019-04-11T20:23:33.579Z,14.60
2019-04-11T20:26:38.629Z,13.90
2019-04-11T20:29:43.775Z,12.50
2019-04-11T20:32:50.434Z,13.07
2019-04-11T20:35:55.369Z,13.73
2019-04-11T20:39:00.489Z,14.60
2019-04-11T20:42:05.573Z,13.77
2019-04-11T20:45:11.067Z,14.10
2019-04-11T20:48:16.116Z,12.40
2019-04-11T20:51:21.265Z,12.83
2019-04-11T20:54:26.245Z,15.20
2019-04-11T20:57:31.398Z,13.40
2019-04-11T21:00:36.492Z,14.80
2019-04-11T21:03:41.855Z,12.53
2019-04-11T21:06:46.785Z,15.33
2019-04-11T21:09:52.118Z,14.90
2019-04-11T21:12:57.031Z,13.90
2019-04-11T21:16:02.284Z,13.90
2019-04-11T21:19:07.403Z,15.20
2019-04-11T21:22:12.462Z,14.73
2019-04-11T21:25:17.543Z,15.30
2019-04-11T21:28:22.790Z,14.13
2019-04-11T21:31:30.797Z,15.20
2019-04-11T21:34:34.944Z,15.10
2019-04-11T21:37:39.987Z,15.57
2019-04-11T21:40:44.997Z,16.47
2019-04-11T21:43:50.120Z,14.73
2019-04-11T21:46:55.116Z,16.93
2019-04-11T21:50:00.285Z,16.37
2019-04-11T21:53:05.493Z,15.93
2019-04-11T21:56:10.419Z,16.23
2019-04-11T21:59:19.928Z,14.60
2019-04-11T22:02:24.301Z,16.27
2019-04-11T22:05:29.847Z,16.13
2019-04-11T22:08:35.152Z,16.47
2019-04-11T22:11:40.309Z,17.73
2019-04-11T22:14:45.307Z,17.37
2019-04-11T22:17:50.403Z,16.70
2019-04-11T22:20:56.603Z,15.83
2019-04-11T22:24:01.887Z,17.00
2019-04-11T22:27:07.078Z,16.40
2019-04-11T22:30:13.292Z,17.40
2019-04-11T22:33:32.393Z,17.63
2019-04-11T22:36:37.354Z,18.37
2019-04-11T22:39:42.760Z,15.43
2019-04-11T22:42:47.692Z,16.33
2019-04-11T22:45:52.787Z,15.53
2019-04-11T22:48:58.066Z,15.03
2019-04-11T22:52:03.137Z,13.80
2019-04-11T22:55:11.111Z,15.03
2019-04-11T22:58:15.064Z,14.20
2019-04-11T23:01:22.683Z,15.20
2019-04-11T23:04:27.816Z,15.40
2019-04-11T23:07:32.995Z,15.83
2019-04-11T23:10:37.938Z,14.73
2019-04-11T23:13:45.705Z,15.93
2019-04-11T23:16:50.596Z,16.40
2019-04-11T23:19:55.581Z,15.53
2019-04-11T23:23:00.796Z,15.87
2019-04-11T23:26:05.690Z,14.80
2019-04-11T23:29:10.631Z,15.40
2019-04-11T23:32:15.672Z,15.77
2019-04-11T23:35:21.302Z,15.60
2019-04-11T23:38:26.867Z,18.03
2019-04-11T23:41:31.814Z,16.10
2019-04-11T23:44:36.712Z,16.73
2019-04-11T23:47:41.675Z,15.07
2019-04-11T23:50:46.761Z,14.63
2019-04-11T23:53:51.994Z,16.97
2019-04-11T23:57:00.539Z,15.23
